Time;durP1;ratioP1;P1;durP2;ratioP2;P2;SDS_P1;SDS_P2;PMS_P1;PMS_P2;Temp;Humidity;BMP_temperature;BMP_pressure;BME280_temperature;BME280_humidity;BME280_pressure;Samples;Min_cycle;Max_cycle;Signal;HPM_P1;HPM_P2
2023/07/20 00:02:18;;;;;;;3.88;0.50;;;;;;;21.73;45.18;100028.78;10499326;28;20111;-73
2023/07/20 00:07:22;;;;;;;2.95;0.50;;;;;;;21.64;45.64;100033.03;10499283;28;20048;-72
2023/07/20 00:12:24;;;;;;;1.40;0.55;;;;;;;21.46;46.12;100045.16;10500167;28;20052;-70
2023/07/20 00:17:25;;;;;;;2.75;0.50;;;;;;;21.46;46.64;100034.22;10500979;28;20137;-71
2023/07/20 00:22:26;;;;;;;2.15;0.80;;;;;;;21.30;47.34;100038.66;10500443;28;20044;-74
2023/07/20 00:27:28;;;;;;;3.90;0.57;;;;;;;21.45;46.60;100046.25;10504356;28;20115;-72
2023/07/20 00:32:29;;;;;;;5.60;0.60;;;;;;;21.41;46.67;100036.88;10498753;28;21597;-72
2023/07/20 00:37:31;;;;;;;1.33;0.40;;;;;;;21.54;46.83;100039.25;10497925;28;20473;-71
2023/07/20 00:42:33;;;;;;;1.70;0.70;;;;;;;21.55;46.30;100037.34;10495937;28;20279;-73
2023/07/20 00:47:36;;;;;;;2.70;0.70;;;;;;;21.62;46.31;100048.06;10496604;28;20051;-72
2023/07/20 00:52:41;;;;;;;4.95;0.95;;;;;;;21.62;46.49;100054.34;10498385;28;20063;-72
2023/07/20 00:57:43;;;;;;;3.03;0.55;;;;;;;21.54;46.57;100061.13;10497933;28;20059;-72
2023/07/20 01:02:45;;;;;;;4.65;0.82;;;;;;;21.46;46.63;100058.81;10502792;28;20052;-70
2023/07/20 01:08:04;;;;;;;3.03;0.60;;;;;;;21.41;47.20;100058.75;10499264;28;20246;-72
2023/07/20 01:13:09;;;;;;;1.85;0.70;;;;;;;21.33;46.94;100056.47;10502069;28;20060;-71
2023/07/20 01:18:10;;;;;;;4.25;0.70;;;;;;;21.32;47.22;100060.28;10505594;28;20123;-72
2023/07/20 01:23:39;;;;;;;2.17;0.70;;;;;;;21.14;47.68;100054.03;10510910;28;20059;-69
2023/07/20 01:29:16;;;;;;;5.40;0.77;;;;;;;21.12;47.95;100060.84;10506335;28;20066;-70
2023/07/20 01:34:19;;;;;;;1.33;0.60;;;;;;;20.99;48.19;100053.81;10456348;28;20121;-72
2023/07/20 01:39:21;;;;;;;5.10;0.70;;;;;;;20.95;48.52;100049.94;10505582;28;20071;-72
2023/07/20 01:44:22;;;;;;;2.25;0.70;;;;;;;20.88;48.55;100060.25;10508148;28;20060;-71
2023/07/20 01:49:24;;;;;;;3.85;1.48;;;;;;;20.88;48.79;100068.44;10502679;28;20040;-72
2023/07/20 01:54:25;;;;;;;3.22;0.73;;;;;;;20.87;48.83;100069.50;10484511;28;20111;-72
2023/07/20 01:59:27;;;;;;;3.17;1.40;;;;;;;20.85;49.10;100061.56;10504641;28;20086;-72
2023/07/20 02:04:28;;;;;;;1.65;0.50;;;;;;;20.83;48.85;100071.09;10505789;28;20071;-73
2023/07/20 02:09:30;;;;;;;2.22;0.85;;;;;;;20.77;49.06;100073.75;10504622;28;20056;-71
2023/07/20 02:14:31;;;;;;;4.30;0.73;;;;;;;20.77;49.44;100068.28;10502518;28;20080;-71
2023/07/20 02:19:32;;;;;;;4.15;1.13;;;;;;;20.79;49.01;100077.06;10504777;28;20105;-71
2023/07/20 02:24:34;;;;;;;3.17;0.60;;;;;;;20.66;49.82;100077.41;10502549;28;20075;-71
2023/07/20 02:29:35;;;;;;;2.80;0.70;;;;;;;20.62;49.89;100078.97;10504000;28;20047;-72
2023/07/20 02:34:37;;;;;;;3.40;0.90;;;;;;;20.60;49.80;100065.56;10502975;28;20217;-72
2023/07/20 02:39:39;;;;;;;3.20;0.80;;;;;;;20.59;49.91;100063.06;10507376;28;20127;-70
2023/07/20 02:44:40;;;;;;;2.10;0.75;;;;;;;20.51;50.33;100072.47;10500990;28;20089;-70
2023/07/20 02:49:42;;;;;;;6.22;1.15;;;;;;;20.26;50.93;100067.44;10501774;28;20388;-72
2023/07/20 02:54:43;;;;;;;2.42;0.63;;;;;;;20.18;51.11;100074.13;10504207;28;20233;-71
2023/07/20 02:59:45;;;;;;;1.60;0.80;;;;;;;20.19;51.12;100074.97;10502182;28;20079;-71
2023/07/20 03:04:46;;;;;;;4.03;0.75;;;;;;;20.09;51.79;100072.06;10500734;28;20064;-70
2023/07/20 03:09:48;;;;;;;3.78;0.80;;;;;;;20.10;51.33;100077.28;10500655;28;20115;-71
2023/07/20 03:14:50;;;;;;;4.47;0.90;;;;;;;19.97;52.40;100074.84;10504144;28;20100;-73
2023/07/20 03:19:51;;;;;;;3.03;0.90;;;;;;;20.14;51.64;100064.78;10500898;28;20048;-72
2023/07/20 03:24:53;;;;;;;2.40;0.90;;;;;;;20.20;51.36;100071.13;10500117;28;20111;-72
2023/07/20 03:29:54;;;;;;;1.92;0.60;;;;;;;20.26;51.37;100072.06;10501602;28;20044;-71
2023/07/20 03:34:55;;;;;;;3.97;0.90;;;;;;;20.26;51.29;100064.72;10498199;28;20135;-71
2023/07/20 03:39:57;;;;;;;2.97;0.77;;;;;;;20.24;51.82;100072.31;10501023;28;20711;-71
2023/07/20 03:44:58;;;;;;;1.85;0.90;;;;;;;20.33;51.45;100070.81;10497725;28;20064;-70
2023/07/20 03:50:00;;;;;;;4.43;0.85;;;;;;;20.45;51.55;100073.47;10500299;28;20048;-70
2023/07/20 03:55:01;;;;;;;3.65;0.75;;;;;;;20.43;51.80;100074.81;10500381;28;20341;-71
2023/07/20 04:00:06;;;;;;;6.05;0.80;;;;;;;20.47;51.60;100068.59;10497135;28;20040;-71
2023/07/20 04:05:08;;;;;;;2.90;0.82;;;;;;;20.50;51.66;100081.75;10501169;28;20111;-70
2023/07/20 04:10:10;;;;;;;4.28;0.98;;;;;;;20.39;52.09;100080.75;10499143;28;20052;-71
2023/07/20 04:15:11;;;;;;;1.63;0.70;;;;;;;20.45;52.03;100083.59;10496617;28;20119;-71
2023/07/20 04:20:13;;;;;;;1.63;0.90;;;;;;;20.46;51.96;100085.22;10497020;28;20189;-71
2023/07/20 04:25:14;;;;;;;3.50;0.85;;;;;;;20.46;52.05;100082.50;10501640;28;20112;-70
2023/07/20 04:30:20;;;;;;;2.50;1.13;;;;;;;20.38;51.95;100086.47;10507111;28;20141;-69
2023/07/20 04:35:53;;;;;;;2.58;0.80;;;;;;;20.32;52.30;100093.75;10499504;28;20044;-70
2023/07/20 04:40:55;;;;;;;3.80;1.00;;;;;;;20.29;51.92;100099.69;10501072;28;20108;-69
2023/07/20 04:45:56;;;;;;;5.78;1.02;;;;;;;20.16;52.30;100100.00;10504620;28;20059;-70
2023/07/20 04:50:58;;;;;;;4.57;1.10;;;;;;;20.10;52.80;100103.72;10504739;28;20045;-70
2023/07/20 04:55:59;;;;;;;7.53;1.10;;;;;;;20.14;52.91;100113.91;10504056;28;20092;-70
2023/07/20 05:01:00;;;;;;;4.47;1.00;;;;;;;20.26;52.73;100105.66;10510086;28;20387;-72
2023/07/20 05:06:02;;;;;;;4.78;0.90;;;;;;;20.30;52.69;100109.56;10505451;28;20101;-72
2023/07/20 05:11:03;;;;;;;5.07;0.77;;;;;;;20.34;52.48;100118.06;10507728;28;20115;-71
2023/07/20 05:16:05;;;;;;;2.75;0.82;;;;;;;20.33;52.75;100114.50;10504749;28;20040;-71
2023/07/20 05:21:07;;;;;;;5.47;0.77;;;;;;;20.42;52.46;100117.69;10508138;28;20045;-72
2023/07/20 05:26:09;;;;;;;5.40;1.15;;;;;;;20.46;52.05;100118.00;10516940;28;20060;-72
2023/07/20 05:31:10;;;;;;;4.13;0.80;;;;;;;20.62;52.42;100113.63;10503964;28;20052;-72
2023/07/20 05:36:12;;;;;;;2.33;0.90;;;;;;;20.72;52.34;100114.66;10509817;28;20067;-71
2023/07/20 05:41:13;;;;;;;8.02;1.90;;;;;;;20.86;52.27;100119.78;10505182;28;20345;-73
2023/07/20 05:46:15;;;;;;;3.17;1.40;;;;;;;20.90;51.95;100120.94;10499255;28;20131;-73
2023/07/20 05:51:16;;;;;;;2.85;1.00;;;;;;;20.86;52.06;100122.50;10498181;28;20068;-72
2023/07/20 05:56:18;;;;;;;3.20;0.93;;;;;;;20.93;51.58;100128.59;10504138;28;20083;-75
2023/07/20 06:01:19;;;;;;;3.05;0.90;;;;;;;21.03;51.58;100122.47;10497801;28;20375;-74
2023/07/20 06:06:21;;;;;;;3.05;1.33;;;;;;;21.27;51.33;100139.47;10500812;28;20333;-73
2023/07/20 06:11:23;;;;;;;3.10;0.70;;;;;;;21.34;51.46;100140.13;10504243;28;20055;-71
2023/07/20 06:16:24;;;;;;;3.72;0.80;;;;;;;21.61;50.62;100150.38;10499955;28;20405;-71
2023/07/20 06:21:26;;;;;;;5.65;1.00;;;;;;;21.76;50.06;100153.28;10510275;28;20044;-71
2023/07/20 06:26:29;;;;;;;2.15;0.70;;;;;;;21.75;50.50;100151.66;10499585;28;20438;-72
2023/07/20 06:31:31;;;;;;;2.97;0.75;;;;;;;21.68;50.08;100154.59;10505247;28;20059;-72
2023/07/20 06:36:32;;;;;;;3.95;0.80;;;;;;;21.78;50.32;100154.72;10501378;28;20365;-73
2023/07/20 06:41:34;;;;;;;4.47;0.95;;;;;;;22.10;49.71;100151.22;10503360;28;20327;-72
2023/07/20 06:46:38;;;;;;;2.20;0.70;;;;;;;22.16;49.63;100152.13;10505361;28;20110;-73
2023/07/20 06:51:40;;;;;;;4.55;0.90;;;;;;;22.39;49.36;100151.00;10498280;28;20107;-73
2023/07/20 06:56:41;;;;;;;1.75;0.75;;;;;;;22.46;48.96;100153.53;10499855;28;20048;-71
2023/07/20 07:01:46;;;;;;;1.85;0.60;;;;;;;22.22;49.32;100162.03;10498680;28;20048;-69
2023/07/20 07:06:48;;;;;;;1.55;0.50;;;;;;;22.16;49.17;100163.06;10505236;28;20044;-70
2023/07/20 07:11:50;;;;;;;1.50;0.70;;;;;;;22.09;49.15;100167.91;10502340;28;20047;-72
2023/07/20 07:16:51;;;;;;;7.50;1.10;;;;;;;22.15;49.24;100167.69;10500121;28;20112;-72
2023/07/20 07:21:58;;;;;;;1.35;0.60;;;;;;;21.91;49.54;100169.91;10503473;28;20055;-72
2023/07/20 07:27:01;;;;;;;2.92;0.88;;;;;;;21.76;49.66;100169.72;10499171;28;20044;-72
2023/07/20 07:32:03;;;;;;;3.72;0.52;;;;;;;21.94;49.67;100174.88;10501005;28;20051;-72
2023/07/20 07:37:05;;;;;;;4.20;0.80;;;;;;;21.95;49.19;100171.03;10498539;28;20252;-71
2023/07/20 07:42:07;;;;;;;3.40;0.80;;;;;;;21.89;48.91;100174.81;10504335;28;20109;-71
2023/07/20 07:47:09;;;;;;;2.78;0.60;;;;;;;22.07;48.50;100178.28;10499173;28;20078;-71
2023/07/20 07:52:10;;;;;;;2.63;0.60;;;;;;;22.36;48.27;100185.22;10502375;28;21433;-71
2023/07/20 07:57:13;;;;;;;2.75;0.90;;;;;;;22.71;47.78;100174.84;10501853;28;20048;-71
2023/07/20 08:02:15;;;;;;;2.10;0.70;;;;;;;22.55;47.48;100179.34;10497011;28;20040;-73
2023/07/20 08:07:16;;;;;;;2.65;1.25;;;;;;;22.49;47.67;100167.56;10498273;28;20059;-73
2023/07/20 08:12:19;;;;;;;1.58;1.27;;;;;;;22.62;47.33;100170.94;10499153;28;20123;-73
2023/07/20 08:17:20;;;;;;;1.52;0.57;;;;;;;22.99;46.70;100151.78;10503333;28;20052;-72
2023/07/20 08:22:22;;;;;;;1.50;0.50;;;;;;;22.98;46.37;100177.53;10498703;28;20306;-74
2023/07/20 08:27:25;;;;;;;1.08;0.50;;;;;;;22.69;46.49;100174.28;10498695;28;20060;-75
2023/07/20 08:32:26;;;;;;;2.25;0.75;;;;;;;22.70;46.77;100173.19;10512989;28;20048;-72
2023/07/20 08:37:28;;;;;;;2.53;0.70;;;;;;;22.68;46.09;100175.38;10507580;28;20060;-75
2023/07/20 08:42:30;;;;;;;1.27;0.50;;;;;;;22.61;46.29;100172.00;10507863;28;20045;-72
2023/07/20 08:47:32;;;;;;;1.15;0.52;;;;;;;23.43;44.70;100164.41;10504411;28;20036;-73
2023/07/20 08:52:34;;;;;;;3.78;1.25;;;;;;;23.47;44.64;100166.34;10508024;28;20044;-74
2023/07/20 08:57:36;;;;;;;3.38;0.60;;;;;;;23.63;44.17;100167.25;10506764;28;20040;-75
2023/07/20 09:02:40;;;;;;;1.33;0.70;;;;;;;23.59;43.83;100173.56;10490074;28;20060;-78
2023/07/20 09:07:42;;;;;;;2.95;0.65;;;;;;;23.51;44.11;100177.63;10511222;28;20056;-75
2023/07/20 09:12:47;;;;;;;3.08;0.65;;;;;;;23.26;44.58;100170.06;10502944;28;20289;-75
2023/07/20 09:17:50;;;;;;;3.70;0.77;;;;;;;23.30;44.44;100177.53;10503277;28;20222;-74
2023/07/20 09:22:52;;;;;;;1.58;0.68;;;;;;;23.47;44.00;100176.50;10502959;28;20044;-75
2023/07/20 09:27:55;;;;;;;1.95;0.60;;;;;;;23.73;44.04;100163.75;10510996;28;20059;-76
2023/07/20 09:32:58;;;;;;;2.33;0.60;;;;;;;23.74;43.52;100171.72;10500009;28;20040;-76
2023/07/20 09:38:01;;;;;;;1.33;0.50;;;;;;;23.66;43.46;100165.91;10504834;28;20252;-76
2023/07/20 09:43:08;;;;;;;5.07;0.50;;;;;;;23.78;42.86;100158.31;10479974;28;20151;-74
2023/07/20 09:48:13;;;;;;;2.00;0.60;;;;;;;23.88;42.95;100157.53;10507867;28;20439;-75
2023/07/20 09:53:18;;;;;;;0.85;0.50;;;;;;;24.00;42.04;100158.09;10502039;28;20356;-77
2023/07/20 09:58:20;;;;;;;3.53;0.50;;;;;;;24.22;41.59;100160.63;10501856;28;20056;-76
2023/07/20 10:03:22;;;;;;;1.73;0.47;;;;;;;24.24;41.14;100157.63;10506222;28;20059;-77
2023/07/20 10:08:25;;;;;;;3.88;0.60;;;;;;;24.27;40.47;100148.81;10499363;28;20048;-77
2023/07/20 10:13:32;;;;;;;2.03;0.40;;;;;;;24.30;40.17;100148.28;10501853;28;20060;-76
2023/07/20 10:19:03;;;;;;;2.67;0.40;;;;;;;24.25;40.10;100148.25;10503770;28;20349;-75
2023/07/20 10:24:05;;;;;;;2.22;0.45;;;;;;;24.83;39.14;100134.31;10501898;28;20044;-76
2023/07/20 10:29:07;;;;;;;0.93;0.40;;;;;;;24.82;38.92;100136.25;10501495;28;20037;-73
2023/07/20 10:34:09;;;;;;;2.00;0.50;;;;;;;24.52;38.81;100120.56;10496995;28;20116;-72
2023/07/20 10:39:27;;;;;;;1.42;0.30;;;;;;;24.67;38.16;100108.78;10505943;28;20044;-74
2023/07/20 10:44:30;;;;;;;3.92;0.47;;;;;;;24.76;38.32;100120.03;10502192;28;20329;-74
2023/07/20 10:49:35;;;;;;;0.52;0.30;;;;;;;25.04;37.59;100104.84;10499143;28;20273;-71
2023/07/20 10:54:47;;;;;;;4.00;0.67;;;;;;;25.35;38.00;100102.06;10501854;28;20067;-72
2023/07/20 10:59:49;;;;;;;3.88;0.50;;;;;;;25.22;37.41;100114.50;10506578;28;20115;-74
2023/07/20 11:04:50;;;;;;;1.70;0.52;;;;;;;25.11;37.10;100108.16;10502517;28;20056;-77
2023/07/20 11:10:12;;;;;;;1.63;0.40;;;;;;;25.29;37.33;100109.50;10501814;28;20053;-77
2023/07/20 11:15:13;;;;;;;3.00;0.43;;;;;;;25.15;37.21;100111.97;10501007;28;20067;-78
2023/07/20 11:20:16;;;;;;;0.65;0.40;;;;;;;25.66;36.86;100106.31;10508174;28;20348;-77
2023/07/20 11:25:20;;;;;;;0.77;0.40;;;;;;;25.62;36.44;100088.72;10503359;28;20112;-77
2023/07/20 11:30:22;;;;;;;2.25;0.40;;;;;;;25.38;36.22;100090.50;10503389;28;20056;-77
2023/07/20 11:35:23;;;;;;;0.60;0.40;;;;;;;25.23;37.08;100088.59;10503085;28;20112;-76
2023/07/20 11:40:25;;;;;;;0.85;0.40;;;;;;;25.12;36.95;100090.56;10501186;28;20120;-77
2023/07/20 11:45:32;;;;;;;3.28;0.98;;;;;;;25.20;36.95;100091.88;10498142;28;20079;-72
2023/07/20 11:50:39;;;;;;;0.50;0.30;;;;;;;25.36;36.59;100084.44;10501174;28;20059;-73
2023/07/20 11:55:41;;;;;;;0.60;0.40;;;;;;;25.38;36.43;100074.00;10499651;28;20060;-72
2023/07/20 12:00:44;;;;;;;1.60;0.50;;;;;;;25.85;35.25;100072.63;10496938;28;20068;-72
2023/07/20 12:05:46;;;;;;;1.15;0.40;;;;;;;26.05;34.90;100053.25;10499209;28;20124;-72
2023/07/20 12:11:02;;;;;;;1.25;0.30;;;;;;;26.05;35.09;100068.97;10499861;28;20077;-72
2023/07/20 12:16:09;;;;;;;2.45;0.40;;;;;;;26.04;35.66;100048.84;10501824;28;20244;-71
2023/07/20 12:21:11;;;;;;;1.48;0.40;;;;;;;25.95;35.89;100069.84;10487180;28;20055;-75
2023/07/20 12:26:15;;;;;;;2.08;0.52;;;;;;;26.51;35.67;100054.81;10498083;28;20040;-72
2023/07/20 12:31:16;;;;;;;0.63;0.40;;;;;;;26.83;34.32;100048.72;10502622;28;20136;-73
2023/07/20 12:36:18;;;;;;;2.28;0.30;;;;;;;27.54;34.13;100042.69;10497733;28;20100;-72
2023/07/20 12:41:20;;;;;;;3.45;0.47;;;;;;;27.49;33.89;100046.34;10495598;28;20059;-73
2023/07/20 12:46:22;;;;;;;0.90;0.38;;;;;;;27.46;33.36;100030.34;10492565;28;20107;-72
2023/07/20 12:51:24;;;;;;;1.48;0.50;;;;;;;27.43;33.27;100040.06;10498646;28;20052;-72
2023/07/20 12:56:25;;;;;;;1.77;0.40;;;;;;;27.45;33.25;100035.06;10491268;28;20056;-73
2023/07/20 13:01:30;;;;;;;1.70;0.57;;;;;;;27.67;33.30;100028.13;10494402;28;20052;-74
2023/07/20 13:06:31;;;;;;;0.60;0.52;;;;;;;27.80;32.43;100023.78;10498983;28;20337;-69
2023/07/20 13:11:34;;;;;;;2.25;0.30;;;;;;;27.56;32.48;100010.06;10502712;28;20048;-71
2023/07/20 13:16:36;;;;;;;1.23;0.70;;;;;;;27.61;32.39;100018.28;10505769;28;20083;-71
2023/07/20 13:21:37;;;;;;;1.30;0.45;;;;;;;27.75;32.21;100018.38;10504205;28;20291;-71
2023/07/20 13:26:39;;;;;;;2.55;0.30;;;;;;;27.88;31.86;100015.69;10508557;28;20103;-70
2023/07/20 13:31:40;;;;;;;3.25;0.40;;;;;;;27.66;32.02;100007.16;10501156;28;20036;-69
2023/07/20 13:36:43;;;;;;;1.42;0.30;;;;;;;28.13;31.30;99997.03;10503869;28;20036;-69
2023/07/20 13:41:45;;;;;;;1.50;0.20;;;;;;;28.76;30.94;99995.66;10506432;28;20120;-69
2023/07/20 13:46:47;;;;;;;1.50;0.35;;;;;;;28.74;30.43;99995.16;10501296;28;20053;-69
2023/07/20 13:51:49;;;;;;;0.85;0.30;;;;;;;28.90;30.47;99995.66;10504951;28;20072;-71
2023/07/20 13:57:11;;;;;;;1.45;0.40;;;;;;;28.55;29.89;99989.69;10505406;28;20064;-72
2023/07/20 14:02:14;;;;;;;0.70;0.30;;;;;;;28.33;30.45;99984.00;10508097;28;20241;-74
2023/07/20 14:07:19;;;;;;;2.65;0.40;;;;;;;28.12;30.21;99987.13;10503883;28;20561;-72
2023/07/20 14:12:21;;;;;;;1.42;0.30;;;;;;;28.15;29.72;99975.44;10500239;28;20098;-74
2023/07/20 14:17:22;;;;;;;2.35;0.30;;;;;;;27.98;29.99;99986.25;10504326;28;20412;-73
2023/07/20 14:22:23;;;;;;;0.85;0.20;;;;;;;27.86;29.44;99984.75;10507128;28;20364;-73
2023/07/20 14:27:27;;;;;;;1.58;0.40;;;;;;;27.81;29.71;99990.34;10501090;28;20056;-73
2023/07/20 14:32:29;;;;;;;0.65;0.25;;;;;;;28.12;30.17;99980.75;10502341;28;20044;-73
2023/07/20 14:37:30;;;;;;;1.75;0.30;;;;;;;28.48;28.32;99979.00;10507521;28;20356;-75
2023/07/20 14:42:32;;;;;;;1.73;0.20;;;;;;;28.25;28.15;99974.47;10501810;28;20146;-73
2023/07/20 14:47:36;;;;;;;0.20;0.20;;;;;;;28.09;27.88;99977.47;10502744;28;20436;-73
2023/07/20 14:52:39;;;;;;;0.20;0.20;;;;;;;27.84;28.08;99975.94;10503561;28;20083;-73
2023/07/20 14:57:49;;;;;;;0.47;0.20;;;;;;;27.79;27.99;99961.41;10505729;28;20040;-74
2023/07/20 15:02:55;;;;;;;1.42;0.30;;;;;;;29.10;26.19;99963.16;10502563;28;20046;-73
2023/07/20 15:07:57;;;;;;;0.75;0.20;;;;;;;29.22;26.33;99969.81;10499154;28;20041;-74
2023/07/20 15:12:58;;;;;;;0.82;0.30;;;;;;;29.49;25.62;99959.81;10502783;28;20056;-74
2023/07/20 15:18:00;;;;;;;0.50;0.20;;;;;;;29.33;25.66;99953.00;10498239;28;20055;-74
2023/07/20 15:23:01;;;;;;;1.33;0.20;;;;;;;29.80;25.76;99956.34;10498319;28;20214;-75
2023/07/20 15:28:03;;;;;;;0.80;0.20;;;;;;;30.01;25.44;99942.81;10500503;28;20044;-72
2023/07/20 15:33:04;;;;;;;0.60;0.20;;;;;;;30.44;24.47;99933.94;10501006;28;20048;-77
2023/07/20 15:38:09;;;;;;;0.53;0.13;;;;;;;30.40;24.55;99944.03;10502191;28;20132;-79
2023/07/20 15:43:10;;;;;;;0.68;0.30;;;;;;;30.58;25.48;99934.63;10500233;28;20131;-80
2023/07/20 15:48:16;;;;;;;0.60;0.30;;;;;;;30.55;25.03;99937.22;10502151;28;20460;-74
2023/07/20 15:53:17;;;;;;;0.57;0.30;;;;;;;29.76;25.33;99935.94;10500190;28;20040;-77
2023/07/20 15:58:19;;;;;;;1.63;0.20;;;;;;;29.46;25.71;99935.50;10502943;28;20120;-77
2023/07/20 16:03:20;;;;;;;0.60;0.20;;;;;;;29.40;25.51;99932.03;10498268;28;20153;-77
2023/07/20 16:08:22;;;;;;;0.40;0.30;;;;;;;28.88;25.86;99923.22;10504110;28;20123;-78
2023/07/20 16:13:23;;;;;;;1.33;0.20;;;;;;;28.53;26.10;99924.75;10498937;28;20112;-73
2023/07/20 16:18:25;;;;;;;2.15;0.30;;;;;;;28.53;26.21;99920.03;10499485;28;20143;-75
2023/07/20 16:23:26;;;;;;;3.08;0.20;;;;;;;28.42;26.35;99918.59;10503771;28;20121;-75
2023/07/20 16:28:28;;;;;;;1.58;0.20;;;;;;;28.34;26.51;99927.56;10502201;28;20040;-80
2023/07/20 16:33:29;;;;;;;0.22;0.20;;;;;;;28.07;26.57;99923.63;10502841;28;20119;-75
2023/07/20 16:38:32;;;;;;;1.38;0.20;;;;;;;27.96;27.29;99908.34;10498981;28;20044;-73
2023/07/20 16:43:44;;;;;;;0.55;0.30;;;;;;;27.92;27.15;99915.63;10508108;28;20048;-73
2023/07/20 16:48:48;;;;;;;7.00;0.55;;;;;;;27.91;27.92;99906.50;10503053;28;20052;-75
2023/07/20 16:53:52;;;;;;;1.75;0.50;;;;;;;27.85;28.12;99905.75;10501291;28;20155;-71
2023/07/20 16:58:54;;;;;;;5.43;0.85;;;;;;;27.70;28.49;99906.81;10503367;28;20108;-75
2023/07/20 17:03:55;;;;;;;2.58;0.40;;;;;;;27.65;29.49;99904.16;10507168;28;20465;-73
2023/07/20 17:09:00;;;;;;;2.38;0.60;;;;;;;27.60;29.93;99909.75;10505525;28;20071;-72
2023/07/20 17:14:01;;;;;;;3.35;0.70;;;;;;;27.44;30.04;99911.91;10506809;28;20341;-74
2023/07/20 17:19:03;;;;;;;0.85;0.50;;;;;;;27.29;30.56;99917.66;10508547;28;20040;-73
2023/07/20 17:24:05;;;;;;;0.57;0.50;;;;;;;27.21;30.80;99908.13;10501004;28;20152;-73
2023/07/20 17:29:07;;;;;;;0.75;0.50;;;;;;;27.23;30.72;99910.56;10494287;28;20036;-73
2023/07/20 17:34:08;;;;;;;2.55;0.60;;;;;;;27.13;30.86;99907.94;10519795;28;20071;-74
2023/07/20 17:39:10;;;;;;;3.95;0.43;;;;;;;27.08;31.00;99904.13;10515138;28;20079;-77
2023/07/20 17:44:11;;;;;;;2.60;0.57;;;;;;;27.02;31.02;99904.50;10519340;28;20501;-72
2023/07/20 17:49:13;;;;;;;0.93;0.50;;;;;;;27.03;31.08;99903.38;10499578;28;20047;-76
2023/07/20 17:54:14;;;;;;;1.17;0.50;;;;;;;27.27;31.75;99904.19;10514109;28;20044;-77
2023/07/20 17:59:16;;;;;;;1.35;0.60;;;;;;;27.52;30.90;99893.84;10515681;28;20052;-77
2023/07/20 18:04:17;;;;;;;1.50;0.60;;;;;;;27.64;31.26;99891.44;10526453;28;20060;-77
2023/07/20 18:09:19;;;;;;;4.38;0.50;;;;;;;27.55;31.08;99886.91;10501876;28;20522;-76
2023/07/20 18:14:21;;;;;;;3.22;0.50;;;;;;;27.34;31.24;99890.00;10509675;28;20086;-76
2023/07/20 18:19:22;;;;;;;3.50;0.60;;;;;;;27.14;31.85;99901.31;10500606;28;20124;-76
2023/07/20 18:24:23;;;;;;;1.45;0.80;;;;;;;26.96;31.92;99895.47;10496086;28;20071;-76
2023/07/20 18:29:25;;;;;;;2.85;0.60;;;;;;;26.81;31.95;99896.50;10505954;28;20060;-79
2023/07/20 18:34:26;;;;;;;1.58;0.60;;;;;;;26.65;32.12;99893.09;10507427;28;20052;-76
2023/07/20 18:39:29;;;;;;;3.22;0.73;;;;;;;26.47;32.66;99891.91;10497294;28;20292;-74
2023/07/20 18:44:31;;;;;;;2.55;0.70;;;;;;;26.26;33.00;99887.75;10474555;28;20319;-77
2023/07/20 18:49:32;;;;;;;4.22;0.55;;;;;;;26.05;33.59;99893.47;10485374;28;20291;-76
2023/07/20 18:54:34;;;;;;;2.70;0.60;;;;;;;25.89;33.94;99894.72;10482900;28;20105;-74
2023/07/20 18:59:35;;;;;;;0.80;0.55;;;;;;;25.67;33.88;99897.91;10500880;28;20108;-75
2023/07/20 19:04:37;;;;;;;3.60;0.70;;;;;;;25.48;34.29;99900.53;10502328;28;20111;-73
2023/07/20 19:09:38;;;;;;;1.42;0.65;;;;;;;25.27;34.38;99910.84;10496416;28;20103;-75
2023/07/20 19:14:39;;;;;;;7.05;1.00;;;;;;;25.04;35.05;99913.16;10495483;28;20037;-75
2023/07/20 19:19:41;;;;;;;2.38;0.65;;;;;;;24.85;35.48;99912.16;10501597;28;20262;-73
2023/07/20 19:24:43;;;;;;;10.95;1.20;;;;;;;24.66;36.08;99918.25;10503114;28;20056;-71
2023/07/20 19:29:44;;;;;;;10.07;1.08;;;;;;;24.39;36.21;99918.59;10498460;28;20044;-71
2023/07/20 19:34:46;;;;;;;6.85;1.27;;;;;;;24.22;36.35;99924.38;10501948;28;20047;-75
2023/07/20 19:39:47;;;;;;;7.25;1.45;;;;;;;24.02;36.66;99938.97;10502751;28;20040;-74
2023/07/20 19:44:49;;;;;;;4.40;1.58;;;;;;;23.85;37.29;99930.19;10499333;28;20044;-78
2023/07/20 19:49:51;;;;;;;4.57;1.05;;;;;;;23.73;37.44;99938.66;10467840;28;20053;-80
2023/07/20 19:54:52;;;;;;;6.30;1.00;;;;;;;23.65;37.86;99936.47;10499728;28;20056;-75
2023/07/20 19:59:55;;;;;;;3.95;0.85;;;;;;;23.55;37.91;99942.75;10486473;28;20040;-78
2023/07/20 20:04:56;;;;;;;3.78;1.10;;;;;;;23.41;38.25;99936.97;10486089;28;20040;-75
2023/07/20 20:09:57;;;;;;;3.38;0.98;;;;;;;23.27;38.33;99936.69;10498784;28;20086;-77
2023/07/20 20:14:59;;;;;;;7.65;1.80;;;;;;;23.10;39.01;99928.66;10502851;28;20056;-78
2023/07/20 20:20:03;;;;;;;15.27;1.52;;;;;;;22.95;39.25;99934.91;10507947;28;20368;-79
2023/07/20 20:25:06;;;;;;;7.80;1.52;;;;;;;22.89;40.01;99924.19;10510257;28;20048;-76
2023/07/20 20:30:08;;;;;;;3.72;1.58;;;;;;;22.77;40.06;99922.50;10506477;28;20099;-79
2023/07/20 20:35:10;;;;;;;4.78;1.40;;;;;;;22.67;40.20;99929.84;10511193;28;20071;-81
2023/07/20 20:40:13;;;;;;;10.65;1.30;;;;;;;22.56;40.75;99924.31;10509968;28;20127;-80
2023/07/20 20:45:14;;;;;;;6.60;2.10;;;;;;;22.44;41.15;99920.97;10485444;28;20052;-78
2023/07/20 20:50:19;;;;;;;8.45;1.88;;;;;;;22.32;41.38;99920.34;10507666;28;20265;-75
2023/07/20 20:55:21;;;;;;;7.20;1.10;;;;;;;22.08;41.84;99917.16;10511648;28;20064;-77
2023/07/20 21:00:23;;;;;;;2.58;1.27;;;;;;;22.03;42.17;99919.84;10507383;28;20066;-78
2023/07/20 21:05:25;;;;;;;4.72;1.52;;;;;;;21.96;42.27;99918.16;10501596;28;20068;-78
2023/07/20 21:10:26;;;;;;;7.13;1.45;;;;;;;21.92;42.41;99911.56;10507693;28;20063;-77
2023/07/20 21:15:28;;;;;;;2.65;1.20;;;;;;;21.87;42.45;99913.44;10505729;28;20049;-75
2023/07/20 21:20:29;;;;;;;1.70;1.05;;;;;;;21.70;42.63;99908.06;10507213;28;20285;-74
2023/07/20 21:25:31;;;;;;;10.23;2.28;;;;;;;21.58;43.16;99909.09;10502562;28;20108;-75
2023/07/20 21:30:32;;;;;;;3.05;0.90;;;;;;;21.50;43.35;99908.72;10512310;28;20047;-75
2023/07/20 21:35:34;;;;;;;3.58;1.00;;;;;;;21.47;43.28;99910.06;10505086;28;20268;-75
2023/07/20 21:40:38;;;;;;;4.80;0.93;;;;;;;21.47;43.42;99909.25;10507139;28;20488;-74
2023/07/20 21:45:41;;;;;;;3.38;0.93;;;;;;;21.39;43.73;99908.59;10501633;28;20102;-73
2023/07/20 21:50:49;;;;;;;3.53;0.82;;;;;;;21.43;43.95;99898.00;10510192;28;20127;-74
2023/07/20 21:55:51;;;;;;;8.27;2.17;;;;;;;21.47;44.14;99890.13;10502229;28;20041;-74
2023/07/20 22:00:55;;;;;;;8.32;1.77;;;;;;;21.52;44.44;99904.63;10503593;28;20124;-74
2023/07/20 22:05:57;;;;;;;4.55;1.10;;;;;;;21.47;44.86;99901.88;10524946;28;20262;-75
2023/07/20 22:11:04;;;;;;;3.72;1.25;;;;;;;21.43;45.24;99903.47;10503480;28;20107;-74
2023/07/20 22:16:07;;;;;;;8.15;0.80;;;;;;;21.42;45.21;99904.50;10504342;28;20209;-74
2023/07/20 22:21:11;;;;;;;4.55;1.35;;;;;;;21.33;45.20;99897.88;10502730;28;20048;-73
2023/07/20 22:26:12;;;;;;;1.92;1.00;;;;;;;21.31;45.24;99897.31;10505847;28;20041;-72
2023/07/20 22:31:14;;;;;;;3.90;0.85;;;;;;;21.34;44.80;99894.06;10501319;28;20108;-72
2023/07/20 22:36:15;;;;;;;9.07;1.92;;;;;;;21.29;44.93;99896.75;10502337;28;20702;-74
2023/07/20 22:41:17;;;;;;;1.75;1.00;;;;;;;21.22;44.97;99888.75;10507404;28;20330;-73
2023/07/20 22:46:18;;;;;;;1.95;0.70;;;;;;;21.20;44.88;99885.44;10500526;28;20356;-74
2023/07/20 22:51:20;;;;;;;4.50;0.80;;;;;;;21.16;45.25;99887.03;10501099;28;20098;-74
2023/07/20 22:56:21;;;;;;;1.27;0.70;;;;;;;21.19;45.08;99889.28;10500174;28;20044;-74
2023/07/20 23:01:25;;;;;;;5.63;0.70;;;;;;;21.18;45.50;99891.16;10504254;28;20348;-74
2023/07/20 23:06:26;;;;;;;5.93;0.93;;;;;;;21.18;45.28;99882.94;10499703;28;20052;-74
2023/07/20 23:11:28;;;;;;;4.55;1.13;;;;;;;21.18;45.37;99888.41;10500527;28;20063;-75
2023/07/20 23:16:30;;;;;;;3.72;1.23;;;;;;;21.00;46.09;99877.84;10504627;28;20089;-72